Time;durP1;ratioP1;P1;durP2;ratioP2;P2;SDS_P1;SDS_P2;PMS_P1;PMS_P2;Temp;Humidity;BMP_temperature;BMP_pressure;BME280_temperature;BME280_humidity;BME280_pressure;Samples;Min_cycle;Max_cycle;Signal;HPM_P1;HPM_P2
2023/04/16 00:00:21;;;;;;;14.87;14.17;;;10.20;99.90;;;;;;5096727;28;20451;-81
2023/04/16 00:02:49;;;;;;;16.43;15.37;;;10.20;99.90;;;;;;5098241;28;20456;-82
2023/04/16 00:05:17;;;;;;;15.30;14.60;;;10.20;1.00;;;;;;5093222;28;20472;-82
2023/04/16 00:07:46;;;;;;;15.60;14.90;;;10.20;1.00;;;;;;5092621;28;20482;-80
2023/04/16 00:10:14;;;;;;;15.47;14.77;;;10.20;1.00;;;;;;5092741;28;20496;-82
2023/04/16 00:12:44;;;;;;;15.80;15.03;;;10.20;1.00;;;;;;5090916;28;20501;-81
2023/04/16 00:15:12;;;;;;;16.23;15.53;;;10.20;99.90;;;;;;5097616;28;20487;-81
2023/04/16 00:17:40;;;;;;;16.60;15.80;;;10.20;29.30;;;;;;5097170;28;20555;-80
2023/04/16 00:20:10;;;;;;;16.00;15.30;;;10.20;40.60;;;;;;5091102;28;20458;-81
2023/04/16 00:22:38;;;;;;;15.90;15.10;;;10.20;99.90;;;;;;5078061;28;20452;-82
2023/04/16 00:25:07;;;;;;;16.10;15.30;;;10.20;1.00;;;;;;5096735;28;20457;-82
2023/04/16 00:27:35;;;;;;;15.83;15.13;;;10.20;99.90;;;;;;5097118;28;20506;-81
2023/04/16 00:30:06;;;;;;;16.43;15.73;;;10.20;85.50;;;;;;5095837;28;20971;-81
2023/04/16 00:32:34;;;;;;;16.07;15.30;;;10.20;1.00;;;;;;5095270;28;20482;-82
2023/04/16 00:35:02;;;;;;;16.00;15.30;;;10.10;99.90;;;;;;5084314;28;20442;-82
2023/04/16 00:37:31;;;;;;;16.80;15.93;;;10.10;1.00;;;;;;5093148;28;20479;-82
2023/04/16 00:39:59;;;;;;;16.23;15.40;;;10.10;99.90;;;;;;5092782;28;20546;-81
2023/04/16 00:42:27;;;;;;;16.07;15.37;;;10.10;99.90;;;;;;5096864;28;20495;-82
2023/04/16 00:44:55;;;;;;;16.33;15.63;;;10.10;99.90;;;;;;5094870;28;20458;-81
2023/04/16 00:47:26;;;;;;;16.47;15.77;;;10.10;99.90;;;;;;5095640;28;20484;-82
2023/04/16 00:49:55;;;;;;;15.97;15.27;;;10.10;37.00;;;;;;5095531;28;20542;-82
2023/04/16 00:52:23;;;;;;;15.30;14.70;;;10.20;99.90;;;;;;5093585;28;20949;-81
2023/04/16 00:54:51;;;;;;;15.90;15.20;;;10.20;23.40;;;;;;5094029;28;20472;-80
2023/04/16 00:57:22;;;;;;;16.30;15.50;;;10.10;99.90;;;;;;5093822;28;20505;-81
2023/04/16 00:59:51;;;;;;;16.23;15.40;;;10.20;39.00;;;;;;5087463;28;20453;-81
2023/04/16 01:02:19;;;;;;;15.77;15.03;;;10.10;1.00;;;;;;5088789;28;20544;-81
2023/04/16 01:04:48;;;;;;;15.93;15.13;;;10.20;99.90;;;;;;5100216;28;20517;-81
2023/04/16 01:07:19;;;;;;;16.63;15.83;;;10.10;99.90;;;;;;5098505;28;20476;-78
2023/04/16 01:09:47;;;;;;;16.00;15.10;;;10.10;99.90;;;;;;5096923;27;20450;-81
2023/04/16 01:12:15;;;;;;;15.60;14.90;;;10.10;1.00;;;;;;5096080;28;20524;-80
2023/04/16 01:14:43;;;;;;;16.40;15.50;;;10.20;99.90;;;;;;5096390;28;20860;-80
2023/04/16 01:17:12;;;;;;;15.50;14.70;;;10.20;40.70;;;;;;5096622;28;20477;-81
2023/04/16 01:19:40;;;;;;;16.00;15.20;;;10.20;99.90;;;;;;5093294;28;20465;-81
2023/04/16 01:22:09;;;;;;;16.57;15.77;;;10.10;99.90;;;;;;5097975;28;20442;-80
2023/04/16 01:24:38;;;;;;;16.53;15.77;;;10.10;4.40;;;;;;5099282;27;20461;-82
2023/04/16 01:27:06;;;;;;;16.60;15.80;;;10.10;99.90;;;;;;5095992;28;20540;-81
2023/04/16 01:29:34;;;;;;;16.40;15.57;;;10.10;99.90;;;;;;5097182;28;20450;-81
2023/04/16 01:32:03;;;;;;;15.70;15.00;;;10.10;99.90;;;;;;5078844;28;20480;-81
2023/04/16 01:34:31;;;;;;;15.00;14.40;;;10.10;38.00;;;;;;5094811;28;20552;-79
2023/04/16 01:36:59;;;;;;;15.33;14.73;;;10.10;1.00;;;;;;5094846;28;20551;-80
2023/04/16 01:39:28;;;;;;;14.83;14.23;;;10.10;99.90;;;;;;5092387;28;20448;-80
2023/04/16 01:41:56;;;;;;;15.03;14.23;;;10.10;1.00;;;;;;5093620;28;20538;-80
2023/04/16 01:44:24;;;;;;;15.53;14.90;;;10.00;99.90;;;;;;5095032;28;20448;-80
2023/04/16 01:46:52;;;;;;;15.20;14.60;;;10.10;1.00;;;;;;5093957;28;21022;-81
2023/04/16 01:49:20;;;;;;;14.90;14.33;;;10.10;99.90;;;;;;5093455;28;21179;-80
2023/04/16 01:51:48;;;;;;;14.27;13.77;;;10.10;1.00;;;;;;5092820;28;20495;-81
2023/04/16 01:54:17;;;;;;;14.30;13.77;;;10.10;1.00;;;;;;5098770;27;20472;-81
2023/04/16 01:56:46;;;;;;;15.50;14.70;;;10.00;1.00;;;;;;5097465;28;20552;-81
2023/04/16 01:59:14;;;;;;;14.73;14.13;;;10.10;99.90;;;;;;5096010;27;20546;-81
2023/04/16 02:01:42;;;;;;;14.80;14.20;;;10.10;1.00;;;;;;5095554;28;20461;-80
2023/04/16 02:04:12;;;;;;;15.40;14.70;;;10.10;99.90;;;;;;5096972;28;20446;-80
2023/04/16 02:06:40;;;;;;;13.80;13.23;;;10.10;1.00;;;;;;5097525;28;20680;-80
2023/04/16 02:09:08;;;;;;;14.00;13.50;;;10.10;1.00;;;;;;5097460;28;20566;-80
2023/04/16 02:11:37;;;;;;;14.10;13.60;;;10.10;99.90;;;;;;5094562;28;20454;-79
2023/04/16 02:14:07;;;;;;;13.77;13.27;;;10.10;99.90;;;;;;5096212;28;20511;-79
2023/04/16 02:16:35;;;;;;;14.10;13.60;;;10.10;99.90;;;;;;5094653;27;21285;-80
2023/04/16 02:19:03;;;;;;;14.10;13.50;;;10.10;99.90;;;;;;5091008;28;20445;-80
2023/04/16 02:21:31;;;;;;;14.30;13.80;;;10.00;37.40;;;;;;5096259;28;20441;-80
2023/04/16 02:23:59;;;;;;;14.03;13.53;;;10.00;99.90;;;;;;5092522;28;20449;-80
2023/04/16 02:26:28;;;;;;;14.40;13.90;;;10.00;99.90;;;;;;5091947;28;20918;-80
2023/04/16 02:28:56;;;;;;;14.87;14.27;;;10.00;99.90;;;;;;5094345;28;20497;-80
2023/04/16 02:31:27;;;;;;;14.63;14.13;;;10.10;1.00;;;;;;5092963;28;20900;-78
2023/04/16 02:33:55;;;;;;;14.40;13.80;;;10.00;99.90;;;;;;5085886;28;20832;-80
2023/04/16 02:36:23;;;;;;;15.00;14.43;;;10.00;99.90;;;;;;5091970;28;20477;-80
2023/04/16 02:38:51;;;;;;;14.77;14.20;;;10.00;1.00;;;;;;5093276;27;20459;-80
2023/04/16 02:41:20;;;;;;;14.60;14.00;;;10.00;99.90;;;;;;5090930;28;20537;-79
2023/04/16 02:43:48;;;;;;;15.40;14.70;;;10.00;99.90;;;;;;5091782;28;20448;-79
2023/04/16 02:46:16;;;;;;;14.07;13.47;;;10.00;99.90;;;;;;5093230;28;20485;-79
2023/04/16 02:48:46;;;;;;;15.00;14.50;;;10.00;1.00;;;;;;5089897;28;20537;-79
2023/04/16 02:51:14;;;;;;;14.80;14.30;;;10.00;1.00;;;;;;5093480;27;20447;-78
2023/04/16 02:53:44;;;;;;;14.63;14.03;;;10.00;99.90;;;;;;5091035;28;20927;-80
2023/04/16 02:56:13;;;;;;;14.80;14.20;;;10.00;99.90;;;;;;5094120;28;20547;-80
2023/04/16 02:58:41;;;;;;;14.93;14.30;;;10.00;1.00;;;;;;5093217;28;20454;-81
2023/04/16 03:01:09;;;;;;;15.37;14.67;;;10.00;99.90;;;;;;5091188;28;20457;-80
2023/04/16 03:03:38;;;;;;;14.40;13.80;;;10.00;1.00;;;;;;5090255;28;20482;-80
2023/04/16 03:06:07;;;;;;;14.27;13.73;;;10.00;99.90;;;;;;5084648;28;21477;-79
2023/04/16 03:08:35;;;;;;;14.50;13.90;;;9.90;99.90;;;;;;5089978;28;20433;-80
2023/04/16 03:11:03;;;;;;;15.53;14.93;;;10.00;77.40;;;;;;5073513;28;20478;-80
2023/04/16 03:13:31;;;;;;;14.43;13.83;;;10.00;99.90;;;;;;5093332;28;20474;-80
2023/04/16 03:15:59;;;;;;;14.90;14.20;;;10.00;4.00;;;;;;5091138;28;20463;-80
2023/04/16 03:18:28;;;;;;;14.70;14.13;;;10.00;99.90;;;;;;5090926;28;20739;-80
2023/04/16 03:20:56;;;;;;;14.67;13.97;;;10.00;2.30;;;;;;5090882;28;20450;-80
2023/04/16 03:23:27;;;;;;;15.50;14.70;;;10.00;1.00;;;;;;5094407;28;21056;-79
2023/04/16 03:25:55;;;;;;;15.47;14.67;;;10.00;99.90;;;;;;5089975;28;20450;-80
2023/04/16 03:28:23;;;;;;;14.83;14.17;;;10.00;99.90;;;;;;5094130;28;20486;-80
2023/04/16 03:30:52;;;;;;;15.70;14.67;;;9.90;1.00;;;;;;5091237;28;21263;-80
2023/04/16 03:33:21;;;;;;;15.73;14.93;;;9.90;1.00;;;;;;5085685;28;20548;-81
2023/04/16 03:35:56;;;;;;;16.70;15.80;;;9.90;99.90;;;;;;5089594;28;20904;-79
2023/04/16 03:38:26;;;;;;;16.17;15.37;;;9.80;99.90;;;;;;5094684;28;20203;-81
2023/04/16 03:40:54;;;;;;;17.03;16.13;;;9.90;99.90;;;;;;5091128;28;20958;-80
2023/04/16 03:43:22;;;;;;;16.13;15.30;;;10.00;99.90;;;;;;5090964;28;20445;-80
2023/04/16 03:45:50;;;;;;;16.97;15.97;;;10.00;99.90;;;;;;5091826;28;20457;-81
2023/04/16 03:48:18;;;;;;;15.80;15.00;;;9.90;99.90;;;;;;5092443;28;20479;-81
2023/04/16 03:50:47;;;;;;;16.60;15.80;;;9.90;99.90;;;;;;5092132;28;20483;-81
2023/04/16 03:53:15;;;;;;;17.00;16.10;;;10.00;1.00;;;;;;5087940;28;20473;-81
2023/04/16 03:55:44;;;;;;;16.20;15.40;;;9.90;99.90;;;;;;5092631;28;20468;-80
2023/04/16 03:58:12;;;;;;;16.03;15.10;;;9.80;1.00;;;;;;5098724;28;20547;-80
2023/04/16 04:00:42;;;;;;;15.70;14.90;;;9.90;99.90;;;;;;5093321;28;20455;-77
2023/04/16 04:03:10;;;;;;;15.60;14.80;;;9.90;1.00;;;;;;5089241;28;21291;-79
2023/04/16 04:05:39;;;;;;;15.50;14.80;;;9.80;18.10;;;;;;5099266;28;20461;-81
2023/04/16 04:08:08;;;;;;;16.00;15.20;;;9.80;1.00;;;;;;5094443;28;20474;-81
2023/04/16 04:10:36;;;;;;;16.07;15.27;;;9.90;1.00;;;;;;5094098;28;20457;-82
2023/04/16 04:13:07;;;;;;;16.10;15.40;;;9.80;1.00;;;;;;5099115;28;20449;-81
2023/04/16 04:15:35;;;;;;;15.00;14.40;;;9.80;1.00;;;;;;5096601;28;20451;-81
2023/04/16 04:18:03;;;;;;;16.03;15.20;;;9.80;99.90;;;;;;5093572;28;20472;-81
2023/04/16 04:20:31;;;;;;;16.43;15.73;;;9.90;1.00;;;;;;5091237;28;20460;-81
2023/04/16 04:22:59;;;;;;;16.53;15.73;;;9.90;99.90;;;;;;5093632;28;20450;-80
2023/04/16 04:25:27;;;;;;;16.43;15.37;;;9.80;1.00;;;;;;5090581;28;20441;-81
2023/04/16 04:27:55;;;;;;;15.30;14.70;;;9.80;99.90;;;;;;5094727;28;20469;-82
2023/04/16 04:30:25;;;;;;;16.07;15.27;;;9.90;99.90;;;;;;5094361;28;20456;-81
2023/04/16 04:32:53;;;;;;;15.93;15.13;;;9.80;99.90;;;;;;5096582;28;20470;-81
2023/04/16 04:35:21;;;;;;;15.03;14.33;;;9.80;99.90;;;;;;5096854;28;20515;-81
2023/04/16 04:37:49;;;;;;;15.00;14.30;;;9.80;1.00;;;;;;5096723;28;20821;-80
2023/04/16 04:40:17;;;;;;;15.70;14.80;;;9.80;1.00;;;;;;5094300;28;20446;-81
2023/04/16 04:42:46;;;;;;;15.30;14.60;;;9.80;1.00;;;;;;5096723;28;20458;-81
2023/04/16 04:45:14;;;;;;;15.27;14.50;;;9.80;1.00;;;;;;5078501;28;20450;-81
2023/04/16 04:47:43;;;;;;;16.10;15.13;;;9.80;1.00;;;;;;5099242;28;20473;-78
2023/04/16 04:50:11;;;;;;;16.30;15.60;;;9.80;16.10;;;;;;5094627;27;20494;-80
2023/04/16 04:52:39;;;;;;;15.07;14.37;;;9.80;1.10;;;;;;5097242;28;20553;-81
2023/04/16 04:55:08;;;;;;;15.07;14.37;;;9.80;1.00;;;;;;5088515;28;20471;-80
2023/04/16 04:57:36;;;;;;;16.23;15.40;;;9.80;1.00;;;;;;5074117;28;21090;-80
2023/04/16 05:00:05;;;;;;;15.07;14.47;;;9.80;1.00;;;;;;5092380;28;20516;-79
2023/04/16 05:02:33;;;;;;;16.63;15.73;;;9.80;1.00;;;;;;5095180;28;20457;-80
2023/04/16 05:05:03;;;;;;;16.37;15.57;;;9.80;1.00;;;;;;5096651;28;20455;-81
2023/04/16 05:07:31;;;;;;;15.93;15.23;;;9.70;91.40;;;;;;5092545;27;20461;-80
2023/04/16 05:10:00;;;;;;;17.40;16.60;;;9.80;99.90;;;;;;5090779;28;20446;-81
2023/04/16 05:12:28;;;;;;;17.73;16.73;;;9.80;1.00;;;;;;5092439;28;20454;-79
2023/04/16 05:14:56;;;;;;;16.67;15.97;;;9.80;99.90;;;;;;5091853;28;20835;-82
2023/04/16 05:17:24;;;;;;;17.30;16.40;;;9.80;99.90;;;;;;5096787;28;20911;-82
2023/04/16 05:19:52;;;;;;;16.70;16.00;;;9.80;1.00;;;;;;5093322;28;20512;-80
2023/04/16 05:22:22;;;;;;;17.53;16.63;;;9.80;99.90;;;;;;5098392;28;20460;-80
2023/04/16 05:24:50;;;;;;;16.20;15.50;;;9.80;99.90;;;;;;5095994;28;22444;-81
2023/04/16 05:27:18;;;;;;;16.83;16.03;;;9.80;99.90;;;;;;5093089;28;20506;-81
2023/04/16 05:29:46;;;;;;;18.47;17.47;;;9.80;99.90;;;;;;5075918;28;21157;-80
2023/04/16 05:32:14;;;;;;;19.40;18.23;;;9.70;99.90;;;;;;5096323;28;20463;-78
2023/04/16 05:34:43;;;;;;;19.77;18.57;;;9.70;99.90;;;;;;5087787;28;20466;-81
2023/04/16 05:37:11;;;;;;;20.30;19.00;;;9.70;1.00;;;;;;5097633;28;20989;-81
2023/04/16 05:39:40;;;;;;;21.20;19.80;;;9.70;1.00;;;;;;5090510;28;20445;-81
2023/04/16 05:42:08;;;;;;;21.60;20.10;;;9.80;1.00;;;;;;5097294;28;20463;-81
2023/04/16 05:44:36;;;;;;;21.87;20.27;;;9.80;1.00;;;;;;5095581;28;20537;-80
2023/04/16 05:47:06;;;;;;;21.47;19.87;;;9.80;1.00;;;;;;5092085;28;20466;-81
2023/04/16 05:49:34;;;;;;;23.03;21.43;;;9.70;1.00;;;;;;5095298;28;20455;-81
2023/04/16 05:52:06;;;;;;;22.33;20.37;;;9.70;1.00;;;;;;5092952;28;20472;-80
2023/04/16 05:54:34;;;;;;;22.90;21.20;;;9.60;1.00;;;;;;5095602;28;20481;-80
2023/04/16 05:57:04;;;;;;;21.40;20.00;;;9.70;99.90;;;;;;5098870;28;20466;-80
2023/04/16 05:59:33;;;;;;;22.00;20.40;;;9.80;96.20;;;;;;5097935;28;20444;-80
2023/04/16 06:02:01;;;;;;;23.10;21.40;;;9.70;1.00;;;;;;5094853;28;20534;-80
2023/04/16 06:04:29;;;;;;;24.03;22.10;;;9.80;39.00;;;;;;5094084;28;20488;-80
2023/04/16 06:06:57;;;;;;;23.33;21.53;;;9.80;1.00;;;;;;5098433;28;20523;-81
2023/04/16 06:09:26;;;;;;;23.30;21.60;;;9.70;38.80;;;;;;5096169;28;20999;-80
2023/04/16 06:11:54;;;;;;;23.40;21.70;;;9.70;1.00;;;;;;5096298;28;20880;-80
2023/04/16 06:14:23;;;;;;;24.80;22.70;;;9.70;1.00;;;;;;5096446;28;21042;-81
2023/04/16 06:16:51;;;;;;;23.73;21.90;;;9.70;1.00;;;;;;5095122;28;21174;-80
2023/04/16 06:19:19;;;;;;;23.70;22.00;;;9.80;1.00;;;;;;5093538;28;20468;-79
2023/04/16 06:21:47;;;;;;;24.17;22.37;;;9.80;1.00;;;;;;5090938;28;20461;-80
2023/04/16 06:24:17;;;;;;;24.13;22.30;;;9.80;1.00;;;;;;5092092;28;20460;-79
2023/04/16 06:26:45;;;;;;;24.23;22.33;;;9.80;1.00;;;;;;5093087;28;21045;-78
2023/04/16 06:29:13;;;;;;;22.83;21.13;;;9.70;99.90;;;;;;5094499;28;20489;-81
2023/04/16 06:31:43;;;;;;;25.00;23.07;;;9.70;1.00;;;;;;5092300;28;20514;-80
2023/04/16 06:34:11;;;;;;;24.90;23.07;;;9.70;1.00;;;;;;5087744;28;20460;-80
2023/04/16 06:36:39;;;;;;;24.90;23.00;;;9.70;99.90;;;;;;5091565;27;20480;-81
2023/04/16 06:39:08;;;;;;;25.73;23.67;;;9.70;99.90;;;;;;5091380;28;20548;-81
2023/04/16 06:41:36;;;;;;;24.67;22.80;;;9.70;31.40;;;;;;5077743;28;20468;-80
2023/04/16 06:44:04;;;;;;;25.30;23.30;;;9.60;1.00;;;;;;5096715;27;20465;-81
2023/04/16 06:46:33;;;;;;;26.67;24.53;;;9.70;99.90;;;;;;5094629;28;20469;-81
2023/04/16 06:49:02;;;;;;;25.07;23.17;;;9.70;54.30;;;;;;5093295;28;20540;-82
2023/04/16 06:51:30;;;;;;;27.03;24.73;;;9.70;1.00;;;;;;5095292;28;20530;-82
2023/04/16 06:53:58;;;;;;;28.03;25.40;;;9.70;62.20;;;;;;5091483;28;20466;-81
2023/04/16 06:56:26;;;;;;;26.30;24.23;;;9.70;99.90;;;;;;5090923;28;20487;-82
2023/04/16 06:58:55;;;;;;;28.07;25.57;;;9.80;73.00;;;;;;5092514;28;20450;-83
2023/04/16 07:01:24;;;;;;;28.60;26.17;;;9.70;70.10;;;;;;5091301;28;20465;-81
2023/04/16 07:03:52;;;;;;;27.70;25.40;;;9.70;99.90;;;;;;5092769;28;20467;-79
2023/04/16 07:06:22;;;;;;;28.40;25.90;;;9.60;99.90;;;;;;5093553;27;20469;-80
2023/04/16 07:08:50;;;;;;;29.33;26.63;;;9.70;1.00;;;;;;5092004;27;21072;-81
2023/04/16 07:11:19;;;;;;;26.93;24.67;;;9.70;99.90;;;;;;5089661;28;20492;-81
2023/04/16 07:13:47;;;;;;;26.43;24.33;;;9.70;99.90;;;;;;5091374;28;20987;-78
2023/04/16 07:16:16;;;;;;;27.90;25.43;;;9.70;1.00;;;;;;5089471;28;20482;-81
2023/04/16 07:18:44;;;;;;;27.30;24.90;;;9.80;1.00;;;;;;5093903;28;20537;-81
2023/04/16 07:21:12;;;;;;;27.13;25.02;;;9.80;1.00;;;;;;5092907;28;21195;-81
2023/04/16 07:23:41;;;;;;;27.37;25.20;;;9.80;21.60;;;;;;5095955;27;20199;-79
2023/04/16 07:26:10;;;;;;;27.07;24.87;;;9.80;1.00;;;;;;5091924;28;20445;-82
2023/04/16 07:28:38;;;;;;;26.83;24.73;;;9.80;1.00;;;;;;5093395;28;20465;-83
2023/04/16 07:31:06;;;;;;;24.97;23.13;;;9.80;99.90;;;;;;5093442;28;21006;-82
2023/04/16 07:33:34;;;;;;;25.63;23.73;;;9.90;1.00;;;;;;5090604;28;20456;-83
2023/04/16 07:36:03;;;;;;;27.57;25.27;;;9.90;99.90;;;;;;5095592;28;20859;-82
2023/04/16 07:38:31;;;;;;;25.57;23.63;;;9.90;99.90;;;;;;5091009;28;20798;-82
2023/04/16 07:41:00;;;;;;;26.60;24.50;;;9.90;1.00;;;;;;5097071;28;20458;-83
2023/04/16 07:43:28;;;;;;;25.47;23.37;;;9.90;1.00;;;;;;5073931;28;20453;-81
2023/04/16 07:45:56;;;;;;;25.60;23.60;;;9.90;1.00;;;;;;5093681;28;21168;-82
2023/04/16 07:48:25;;;;;;;25.87;23.67;;;9.80;99.90;;;;;;5095904;28;20437;-82
2023/04/16 07:50:53;;;;;;;28.63;26.33;;;9.90;99.90;;;;;;5094898;28;20452;-83
2023/04/16 07:53:21;;;;;;;28.07;25.50;;;9.90;99.90;;;;;;5098490;28;20667;-82
2023/04/16 07:55:49;;;;;;;25.20;23.13;;;9.90;1.00;;;;;;5077751;28;20601;-82
2023/04/16 07:58:19;;;;;;;25.30;23.40;;;10.00;1.00;;;;;;5093209;28;20487;-82
2023/04/16 08:00:47;;;;;;;25.90;23.90;;;10.00;99.90;;;;;;5096077;28;20484;-82
2023/04/16 08:03:18;;;;;;;25.93;23.70;;;10.00;99.90;;;;;;5097542;28;21071;-82
2023/04/16 08:05:46;;;;;;;26.30;24.13;;;10.00;26.90;;;;;;5095262;28;21079;-83
2023/04/16 08:08:14;;;;;;;27.33;25.23;;;10.00;1.00;;;;;;5090880;28;20493;-82
2023/04/16 08:10:43;;;;;;;26.00;24.10;;;9.90;1.00;;;;;;5072734;28;20525;-83
2023/04/16 08:13:11;;;;;;;25.53;23.37;;;10.00;99.90;;;;;;5093685;28;20446;-84
2023/04/16 08:15:40;;;;;;;24.90;23.03;;;9.90;99.90;;;;;;5093298;28;20516;-83
2023/04/16 08:18:11;;;;;;;26.40;24.40;;;10.00;99.90;;;;;;5095507;28;20555;-83
2023/04/16 08:20:39;;;;;;;25.70;23.77;;;10.00;99.90;;;;;;5094790;28;20477;-81
2023/04/16 08:23:08;;;;;;;24.83;22.97;;;9.90;99.90;;;;;;5097998;28;20547;-83
2023/04/16 08:25:36;;;;;;;26.03;24.13;;;10.00;99.90;;;;;;5095316;28;21000;-82
2023/04/16 08:28:04;;;;;;;24.80;22.90;;;10.00;99.90;;;;;;5091850;28;20486;-82
2023/04/16 08:30:33;;;;;;;24.80;22.87;;;10.00;99.90;;;;;;5093322;28;21465;-82
2023/04/16 08:33:02;;;;;;;27.30;25.20;;;10.00;2.80;;;;;;5088994;28;21335;-82
2023/04/16 08:35:31;;;;;;;25.50;23.60;;;10.00;99.90;;;;;;5091702;28;20545;-80
2023/04/16 08:38:00;;;;;;;24.97;23.13;;;10.00;82.20;;;;;;5093936;28;20572;-82
2023/04/16 08:40:31;;;;;;;26.23;24.33;;;10.00;99.90;;;;;;5091604;28;20450;-80
2023/04/16 08:43:00;;;;;;;25.23;23.40;;;10.00;1.00;;;;;;5086080;28;20552;-81
2023/04/16 08:45:29;;;;;;;24.27;22.47;;;10.00;10.30;;;;;;5078206;28;20872;-82
2023/04/16 08:47:57;;;;;;;25.13;22.93;;;10.10;1.00;;;;;;5091500;28;20485;-82
2023/04/16 08:50:27;;;;;;;25.07;23.17;;;10.00;99.90;;;;;;5093358;28;20454;-80
2023/04/16 08:52:59;;;;;;;24.80;23.10;;;10.00;99.90;;;;;;5096164;28;20450;-81
2023/04/16 08:55:35;;;;;;;24.60;22.70;;;10.00;99.90;;;;;;5095944;28;21243;-83
2023/04/16 08:58:09;;;;;;;24.20;22.40;;;10.00;99.90;;;;;;5093091;28;20482;-83
2023/04/16 09:00:39;;;;;;;24.37;22.53;;;10.00;99.90;;;;;;5092398;28;20595;-79
2023/04/16 09:03:09;;;;;;;23.80;22.00;;;10.00;99.90;;;;;;5090172;28;20482;-81
2023/04/16 09:05:39;;;;;;;23.60;21.90;;;10.00;99.90;;;;;;5092672;28;20453;-80
2023/04/16 09:08:08;;;;;;;24.05;22.25;;;10.10;1.00;;;;;;5097369;28;20438;-78
2023/04/16 09:10:36;;;;;;;26.45;24.58;;;10.20;1.00;;;;;;5092153;28;20488;-81
2023/04/16 09:13:04;;;;;;;24.77;22.93;;;10.00;99.90;;;;;;5094273;28;20214;-81
2023/04/16 09:15:35;;;;;;;24.90;23.20;;;10.20;1.00;;;;;;5090880;28;20487;-81
2023/04/16 09:18:03;;;;;;;25.50;23.67;;;10.30;1.00;;;;;;5096626;28;20539;-80
2023/04/16 09:20:32;;;;;;;25.03;22.80;;;10.20;1.00;;;;;;5097868;27;20449;-80
2023/04/16 09:23:01;;;;;;;25.37;23.43;;;10.30;99.90;;;;;;5096363;28;21030;-80
2023/04/16 09:25:33;;;;;;;25.47;23.57;;;10.30;99.90;;;;;;5096400;28;20526;-80
2023/04/16 09:28:01;;;;;;;24.90;23.20;;;10.30;1.00;;;;;;5096267;28;20465;-79
2023/04/16 09:30:30;;;;;;;25.37;23.57;;;10.30;1.00;;;;;;5093635;27;20454;-80
2023/04/16 09:33:15;;;;;;;23.87;22.27;;;10.30;99.90;;;;;;5095322;28;20543;-79
2023/04/16 09:35:48;;;;;;;25.30;23.37;;;10.30;99.90;;;;;;5096979;28;20519;-79
2023/04/16 09:38:18;;;;;;;24.97;23.07;;;10.20;99.90;;;;;;5096235;27;20480;-80
2023/04/16 09:40:47;;;;;;;24.20;22.40;;;10.20;99.90;;;;;;5097792;28;20455;-80
2023/04/16 09:43:17;;;;;;;23.73;22.00;;;10.20;1.00;;;;;;5096677;28;20460;-80
2023/04/16 09:45:49;;;;;;;24.50;22.70;;;10.20;99.90;;;;;;5097887;28;20199;-80
2023/04/16 09:48:29;;;;;;;24.70;22.93;;;10.30;99.90;;;;;;5097950;28;20687;-82
2023/04/16 09:50:57;;;;;;;25.30;23.23;;;10.20;99.90;;;;;;5095970;28;20460;-81
2023/04/16 09:53:31;;;;;;;24.10;22.40;;;10.20;72.50;;;;;;5090282;28;20475;-82
2023/04/16 09:56:01;;;;;;;26.07;23.97;;;10.30;1.00;;;;;;5101241;28;20441;-82
2023/04/16 09:58:29;;;;;;;23.47;21.63;;;10.30;1.00;;;;;;5101182;28;20461;-82
2023/04/16 10:01:01;;;;;;;25.73;23.73;;;10.30;24.90;;;;;;5093034;28;20454;-82
2023/04/16 10:03:31;;;;;;;24.17;22.43;;;10.30;99.90;;;;;;5097729;28;20435;-80
2023/04/16 10:06:01;;;;;;;25.50;23.40;;;10.30;1.00;;;;;;5098850;28;20451;-80
2023/04/16 10:08:31;;;;;;;24.00;22.27;;;10.30;1.00;;;;;;5097843;28;20461;-80
2023/04/16 10:10:59;;;;;;;25.77;23.60;;;10.30;1.00;;;;;;5097607;28;20458;-80
2023/04/16 10:13:29;;;;;;;26.40;24.40;;;10.30;99.90;;;;;;5098545;27;20464;-81
2023/04/16 10:15:58;;;;;;;26.30;24.30;;;10.30;99.90;;;;;;5097226;28;20982;-80
2023/04/16 10:18:27;;;;;;;25.70;23.70;;;10.30;1.00;;;;;;5090150;27;20608;-80
2023/04/16 10:20:55;;;;;;;26.07;23.93;;;10.30;99.90;;;;;;5095796;28;20887;-81
2023/04/16 10:23:23;;;;;;;25.20;23.30;;;10.30;1.00;;;;;;5077649;28;20903;-80
2023/04/16 10:25:55;;;;;;;24.93;23.00;;;10.30;58.20;;;;;;5096490;28;21149;-79
2023/04/16 10:28:25;;;;;;;25.13;23.07;;;10.30;99.90;;;;;;5095283;28;20449;-79
2023/04/16 10:30:56;;;;;;;24.70;22.70;;;10.30;99.90;;;;;;5095008;28;20470;-80
2023/04/16 10:33:27;;;;;;;24.80;22.90;;;10.40;1.00;;;;;;5095082;28;21379;-80
2023/04/16 10:36:08;;;;;;;23.93;22.13;;;10.40;99.90;;;;;;5095385;28;20457;-80
2023/04/16 10:38:39;;;;;;;25.87;23.60;;;10.40;1.00;;;;;;5096830;28;20468;-80
2023/04/16 10:41:09;;;;;;;25.43;23.27;;;10.40;99.90;;;;;;5096881;28;20471;-80
2023/04/16 10:43:42;;;;;;;25.03;23.03;;;10.30;99.90;;;;;;5098016;28;20458;-80
2023/04/16 10:46:22;;;;;;;24.63;22.80;;;10.30;99.90;;;;;;5097892;28;20453;-81
2023/04/16 10:48:53;;;;;;;23.17;21.57;;;10.30;99.90;;;;;;5097100;28;20453;-80
2023/04/16 10:51:30;;;;;;;25.10;23.40;;;10.20;1.00;;;;;;5099358;28;20896;-80
2023/04/16 10:54:03;;;;;;;23.33;21.70;;;10.30;1.00;;;;;;5095186;28;20545;-81
2023/04/16 10:56:34;;;;;;;24.70;22.90;;;10.30;42.70;;;;;;5097896;28;20484;-81
2023/04/16 10:59:05;;;;;;;24.10;22.17;;;10.30;99.90;;;;;;5100269;28;20478;-80
2023/04/16 11:01:34;;;;;;;24.53;22.67;;;10.30;99.90;;;;;;5098158;28;20528;-80
2023/04/16 11:04:28;;;;;;;24.67;22.73;;;10.40;1.00;;;;;;5099021;28;20540;-80
2023/04/16 11:07:07;;;;;;;23.83;21.90;;;10.30;1.00;;;;;;5101808;28;20535;-84
2023/04/16 11:09:47;;;;;;;22.20;20.70;;;10.30;1.00;;;;;;5098080;28;20449;-83
2023/04/16 11:12:17;;;;;;;23.33;21.53;;;10.30;99.90;;;;;;5094559;28;20450;-83
2023/04/16 11:14:48;;;;;;;23.13;21.23;;;10.40;99.90;;;;;;5099023;28;20544;-83
2023/04/16 11:17:17;;;;;;;22.00;20.50;;;10.40;39.10;;;;;;5097764;28;20481;-83
2023/04/16 11:19:46;;;;;;;22.93;21.23;;;10.40;99.90;;;;;;5097585;28;21072;-83
2023/04/16 11:22:16;;;;;;;21.87;20.53;;;10.40;1.00;;;;;;5101844;28;20446;-83
2023/04/16 11:24:46;;;;;;;22.73;21.10;;;10.40;1.00;;;;;;5099808;28;20457;-84
2023/04/16 11:27:15;;;;;;;22.90;21.20;;;10.50;99.90;;;;;;5096527;28;20556;-83
2023/04/16 11:29:44;;;;;;;20.37;19.13;;;10.50;99.90;;;;;;5097885;28;21205;-82
2023/04/16 11:32:21;;;;;;;21.70;20.30;;;10.50;1.00;;;;;;5097311;28;20541;-82
2023/04/16 11:34:50;;;;;;;21.40;20.00;;;10.50;99.90;;;;;;5089879;28;20548;-82
2023/04/16 11:37:21;;;;;;;20.27;19.10;;;10.50;99.90;;;;;;5100388;28;20558;-82
2023/04/16 11:39:50;;;;;;;20.30;19.20;;;10.50;99.90;;;;;;5091599;28;20501;-83
2023/04/16 11:42:23;;;;;;;20.83;19.43;;;10.50;99.90;;;;;;5095829;28;20441;-82
2023/04/16 11:44:53;;;;;;;21.90;20.40;;;10.50;99.90;;;;;;5094043;28;20461;-83
2023/04/16 11:47:22;;;;;;;20.70;19.40;;;10.60;99.90;;;;;;5094470;28;20990;-84
2023/04/16 11:49:51;;;;;;;21.47;20.07;;;10.60;99.90;;;;;;5086747;28;20469;-82
2023/04/16 11:52:27;;;;;;;21.47;20.20;;;10.60;1.00;;;;;;5093011;28;20457;-83
2023/04/16 11:54:55;;;;;;;20.77;19.47;;;10.60;1.00;;;;;;5095770;28;20454;-84
2023/04/16 11:57:30;;;;;;;20.80;19.63;;;10.60;99.90;;;;;;5097288;28;20469;-84
2023/04/16 12:00:00;;;;;;;20.67;19.37;;;10.60;99.90;;;;;;5095086;28;20461;-83
2023/04/16 12:02:36;;;;;;;21.40;19.90;;;10.70;99.90;;;;;;5077916;28;20458;-85
2023/04/16 12:05:25;;;;;;;20.03;18.73;;;10.80;99.90;;;;;;5088000;28;20565;-82
2023/04/16 12:07:53;;;;;;;19.23;18.13;;;10.80;99.90;;;;;;5092617;28;20993;-82
2023/04/16 12:10:21;;;;;;;20.00;18.63;;;10.80;99.90;;;;;;5075881;28;20453;-83
2023/04/16 12:12:51;;;;;;;19.83;18.70;;;10.80;1.00;;;;;;5097419;28;20871;-84
2023/04/16 12:15:19;;;;;;;19.63;18.50;;;10.80;1.00;;;;;;5094750;28;20515;-84
2023/04/16 12:17:49;;;;;;;19.60;18.50;;;10.80;80.30;;;;;;5092837;28;20473;-84
2023/04/16 12:20:17;;;;;;;19.40;18.23;;;10.80;99.90;;;;;;5094432;28;21145;-80
2023/04/16 12:22:48;;;;;;;17.53;16.83;;;10.90;1.00;;;;;;5094042;28;20461;-80
2023/04/16 12:25:17;;;;;;;18.20;17.30;;;10.90;73.80;;;;;;5073581;28;20462;-81
2023/04/16 12:27:47;;;;;;;17.90;16.93;;;10.90;1.00;;;;;;5091855;28;20514;-83
2023/04/16 12:30:22;;;;;;;17.30;16.50;;;10.90;91.70;;;;;;5089519;28;20453;-83
2023/04/16 12:32:53;;;;;;;17.67;16.77;;;10.90;47.00;;;;;;5090215;28;20456;-82
2023/04/16 12:35:31;;;;;;;16.30;15.70;;;10.80;1.00;;;;;;5092936;28;20437;-84
2023/04/16 12:37:59;;;;;;;15.73;15.10;;;10.80;1.00;;;;;;5095805;28;20461;-81
2023/04/16 12:40:28;;;;;;;15.50;14.90;;;10.80;1.00;;;;;;5096321;28;20473;-83
2023/04/16 12:42:56;;;;;;;15.70;15.20;;;10.90;1.00;;;;;;5096649;28;20461;-81
2023/04/16 12:45:26;;;;;;;14.90;14.40;;;10.90;1.00;;;;;;5098237;28;20465;-82